Aviation Digital Data Service (ADDS)

Output produced by METARs form (0211 UTC 24 June 2021)
found at http://aviationweather.gov/metar/data/
 
KSNS 240153Z AUTO 32012KT 10SM FEW021 19/12 A2995 RMK AO2 SLP151 T01940117 TSNO
KSNS 232320Z 2400/2424 32013G18KT P6SM SCT025 
     FM240300 28011KT P6SM BKN018 
     FM240500 30005KT P6SM OVC016 
     FM241000 VRB03KT P6SM OVC011 
     FM241700 29009KT P6SM SKC
       
KMRY 240154Z 25011G20KT 10SM CLR 19/12 A2996 RMK AO2 SLP155 T01940122
KMRY 232320Z 2400/2424 25015KT P6SM FEW020 
     FM240300 23010KT P6SM BKN020 
     FM240500 VRB05KT P6SM OVC016 
     FM241000 VRB03KT P6SM OVC012 
     FM241700 29008KT P6SM SKC
       
KSJC 240153Z 34015G20KT 10SM FEW016 FEW023 FEW032 21/12 A2992 RMK AO2 SLP131 T02060122
KSJC 232320Z 2400/2424 31015G20KT P6SM SKC 
     FM240400 32011KT P6SM FEW020 
     FM240600 VRB05KT P6SM BKN018 
     FM241200 16007KT P6SM OVC016 
     FM241700 VRB03KT P6SM FEW020 
     FM241900 32008KT P6SM SKC
       
KRHV 240147Z 33012G18KT 10SM SKC 22/13 A2991
KSFO 240156Z 27012KT 10SM FEW017 21/11 A2994 RMK AO2 SLP137 T02110111
KSFO 232320Z 2400/2506 25018G25KT P6SM FEW010 
     FM240230 24011KT P6SM FEW009 SCT015 
     FM240500 25009KT P6SM FEW009 BKN014 
     FM240800 25007KT P6SM FEW009 OVC013 
     FM241600 24006KT P6SM FEW010 BKN015 
     FM241800 26009KT P6SM FEW011 FEW016 
     FM242100 26014G21KT P6SM FEW011 
     FM250400 27012KT P6SM FEW010
       
KLVK 240153Z 27015KT 10SM CLR 21/11 A2991 RMK AO2 SLP126 T02060111
KLVK 232320Z 2400/2424 29018KT P6SM SKC 
     FM240600 27010KT P6SM FEW024 
     FM240900 27008KT P6SM SCT022 
     FM241200 27006KT P6SM BKN020 
     FM241600 27008KT P6SM FEW024 
     FM242100 30015KT P6SM SKC
       
KMCE 240153Z AUTO 31005KT 10SM CLR 32/12 A2980 RMK AO2 SLP091 T03220122
KMCE 232320Z 2400/2424 32006KT P6SM SKC